KAUM/AUM METAR and TAF weather

Enter ICAO airport designator
Station Type Date Time Source
KAUM METAR 2021/01/17 18:55 UTC NOAA

KAUM 171855Z AUTO 31005KT 10SM CLR M06/M08 A2976 RMK AO2


Station Type Date Time Source
KAUM Decoded METAR 2021/01/17 18:55 UTC NOAA

Austin Municipal, MN, United States (KAUM) 43-40N 092-56W
Jan 17, 2021 - 01:55 PM EST / 2021.01.17 1855 UTC
Wind: from the NW (310 degrees) at 6 MPH (5 KT):0
Visibility: 10 mile(s):0
Sky conditions: clear
Temperature: 21 F (-6 C)
Windchill: 14 F (-10 C):1
Dew Point: 17 F (-8 C)
Relative Humidity: 85%
Pressure (altimeter): 29.76 in. Hg (1007 hPa)
ob: KAUM 171855Z AUTO 31005KT 10SM CLR M06/M08 A2976 RMK AO2
cycle: 19

Station Type Date Time Source
KAUM TAF UTC NOAA

Error!

Example: see airport list